地図

経路データ

SID SEASON NUMBER BASIN SUBBASIN NAME ISO_TIME NATURE LAT LON WMO_WIND WMO_PRES WMO_AGENCY TRACK_TYPE DIST2LAND LANDFALL IFLAG USA_AGENCY USA_ATCF_ID USA_LAT USA_LON USA_RECORD USA_STATUS USA_WIND USA_PRES USA_SSHS USA_R34_NE USA_R34_SE USA_R34_SW USA_R34_NW USA_R50_NE USA_R50_SE USA_R50_SW USA_R50_NW USA_R64_NE USA_R64_SE USA_R64_SW USA_R64_NW USA_POCI USA_ROCI USA_RMW USA_EYE TOKYO_LAT TOKYO_LON TOKYO_GRADE TOKYO_WIND TOKYO_PRES TOKYO_R50_DIR TOKYO_R50_LONG TOKYO_R50_SHORT TOKYO_R30_DIR TOKYO_R30_LONG TOKYO_R30_SHORT TOKYO_LAND CMA_LAT CMA_LON CMA_CAT CMA_WIND CMA_PRES HKO_LAT HKO_LON HKO_CAT HKO_WIND HKO_PRES NEWDELHI_LAT NEWDELHI_LON NEWDELHI_GRADE NEWDELHI_WIND NEWDELHI_PRES NEWDELHI_CI NEWDELHI_DP NEWDELHI_POCI REUNION_LAT REUNION_LON REUNION_TYPE REUNION_WIND REUNION_PRES REUNION_TNUM REUNION_CI REUNION_RMW REUNION_R34_NE REUNION_R34_SE REUNION_R34_SW REUNION_R34_NW REUNION_R50_NE REUNION_R50_SE REUNION_R50_SW REUNION_R50_NW REUNION_R64_NE REUNION_R64_SE REUNION_R64_SW REUNION_R64_NW BOM_LAT BOM_LON BOM_TYPE BOM_WIND BOM_PRES BOM_TNUM BOM_CI BOM_RMW BOM_R34_NE BOM_R34_SE BOM_R34_SW BOM_R34_NW BOM_R50_NE BOM_R50_SE BOM_R50_SW BOM_R50_NW BOM_R64_NE BOM_R64_SE BOM_R64_SW BOM_R64_NW BOM_ROCI BOM_POCI BOM_EYE BOM_POS_METHOD BOM_PRES_METHOD NADI_LAT NADI_LON NADI_CAT NADI_WIND NADI_PRES WELLINGTON_LAT WELLINGTON_LON WELLINGTON_WIND WELLINGTON_PRES DS824_LAT DS824_LON DS824_STAGE DS824_WIND DS824_PRES TD9636_LAT TD9636_LON TD9636_STAGE TD9636_WIND TD9636_PRES TD9635_LAT TD9635_LON TD9635_WIND TD9635_PRES TD9635_ROCI NEUMANN_LAT NEUMANN_LON NEUMANN_CLASS NEUMANN_WIND NEUMANN_PRES MLC_LAT MLC_LON MLC_CLASS MLC_WIND MLC_PRES USA_GUST BOM_GUST BOM_GUST_PER REUNION_GUST REUNION_GUST_PER USA_SEAHGT USA_SEARAD_NE USA_SEARAD_SE USA_SEARAD_SW USA_SEARAD_NW STORM_SPEED STORM_DIR
1921217N18125 1921 35 WP MM NOT_NAMED 1921-08-05 10:00:00 NR 18.1000 125.200 main 307 295 __________O___ -1 18.1000 125.200 4 5 318
1921217N18125 1921 35 WP MM NOT_NAMED 1921-08-05 12:00:00 NR 18.2178 125.091 main 295 274 __________P___ -1 18.2178 125.091 4 5 318
1921217N18125 1921 35 WP MM NOT_NAMED 1921-08-05 15:00:00 NR 18.3940 124.925 main 274 263 __________P___ -1 18.3940 124.925 4 5 317
1921217N18125 1921 35 WP MM NOT_NAMED 1921-08-05 18:00:00 NR 18.5692 124.751 main 264 244 __________P___ -1 18.5692 124.751 4 5 316
1921217N18125 1921 35 WP MM NOT_NAMED 1921-08-05 21:00:00 NR 18.7427 124.565 main 244 236 __________P___ -1 18.7427 124.565 4 5 314
1921217N18125 1921 35 WP MM NOT_NAMED 1921-08-05 22:00:00 NR 18.8000 124.500 main 236 225 __________O___ -1 18.8000 124.500 4 5 312
1921217N18125 1921 35 WP MM NOT_NAMED 1921-08-06 00:00:00 NR 18.9140 124.364 main 228 205 __________P___ -1 18.9140 124.364 4 5 311
1921217N18125 1921 35 WP MM NOT_NAMED 1921-08-06 03:00:00 NR 19.0850 124.147 main 205 190 __________P___ -1 19.0850 124.147 4 5 309
1921217N18125 1921 35 WP MM NOT_NAMED 1921-08-06 06:00:00 NR 19.2587 123.919 main 196 184 __________P___ -1 19.2587 123.919 4 6 309
1921217N18125 1921 35 WP MM NOT_NAMED 1921-08-06 09:00:00 NR 19.4383 123.681 main 184 183 __________P___ -1 19.4383 123.681 4 6 309
1921217N18125 1921 35 WP MM NOT_NAMED 1921-08-06 10:00:00 NR 19.5000 123.600 main 183 176 __________O___ -1 19.5000 123.600 4 5 305
1921217N18125 1921 35 WP MM NOT_NAMED 1921-08-06 12:00:00 NR 19.5855 123.454 main 184 170 __________P___ -1 19.5855 123.454 4 5 302
1921217N18125 1921 35 WP MM NOT_NAMED 1921-08-06 15:00:00 NR 19.7191 123.229 main 173 173 __________P___ -1 19.7191 123.229 4 5 305
1921217N18125 1921 35 WP MM NOT_NAMED 1921-08-06 18:00:00 NR 19.9010 122.984 main 183 179 __________P___ -1 19.9010 122.984 4 7 313
1921217N18125 1921 35 WP MM NOT_NAMED 1921-08-06 21:00:00 NR 20.1783 122.704 main 205 205 __________P___ -1 20.1783 122.704 4 8 318
1921217N18125 1921 35 WP MM NOT_NAMED 1921-08-06 22:00:00 NR 20.3000 122.600 main 214 212 __________O___ -1 20.3000 122.600 4 11 327
1921217N18125 1921 35 WP MM NOT_NAMED 1921-08-07 00:00:00 NR 20.6188 122.394 main 212 138 __________P___ -1 20.6188 122.394 4 12 330
1921217N18125 1921 35 WP MM NOT_NAMED 1921-08-07 03:00:00 NR 21.1981 122.047 main 138 73 __________P___ -1 21.1981 122.047 4 14 330
1921217N18125 1921 35 WP MM NOT_NAMED 1921-08-07 06:00:00 NR 21.8437 121.644 main 73 23 __________P___ -1 21.8437 121.644 4 15 328
1921217N18125 1921 35 WP MM NOT_NAMED 1921-08-07 09:00:00 NR 22.4933 121.174 main 23 0 __________P___ -1 22.4933 121.174 4 16 325
1921217N18125 1921 35 WP MM NOT_NAMED 1921-08-07 10:00:00 NR 22.7000 121.000 main 0 0 __________O___ -1 22.7000 121.000 4 16 320
1921217N18125 1921 35 WP MM NOT_NAMED 1921-08-07 12:00:00 NR 23.0887 120.626 main 0 0 __________P___ -1 23.0887 120.626 4 16 315
1921217N18125 1921 35 WP MM NOT_NAMED 1921-08-07 15:00:00 NR 23.6181 120.007 main 10 10 __________P___ -1 23.6181 120.007 4 16 311
1921217N18125 1921 35 WP MM NOT_NAMED 1921-08-07 18:00:00 NR 24.0997 119.338 main 82 0 __________P___ -1 24.0997 119.338 4 16 307
1921217N18125 1921 35 WP MM NOT_NAMED 1921-08-07 21:00:00 NR 24.5523 118.637 main 0 0 __________P___ -1 24.5523 118.637 4 16 305
1921217N18125 1921 35 WP MM NOT_NAMED 1921-08-07 22:00:00 NR 24.7000 118.400 main 0 __________O___ -1 24.7000 118.400 7 16 304

デジタル台風データ・検索

IBTrACS Databaseについて

本データベースは、米国NOAAが公開する1842年以降の世界の熱帯低気圧のベストトラックデータアーカイブInternational Best Track Archive for Climate Stewardship (IBTrACS)を、ウェブで閲覧しやすい形式に変換したものです。

最終更新日:2021-12-06